EGKB/BQH METAR and TAF weather

Enter ICAO airport designator
Station Type Date Time Source
EGKB METAR 2022/12/08 13:20 UTC NOAA

EGKB 081320Z 30004KT 250V330 9000 FEW040 01/M01 Q1010


Station Type Date Time Source
EGKB Decoded METAR 2022/12/08 13:20 UTC NOAA

Biggin Hill , United Kingdom (EGKB) 51-19N 000-02E
Dec 08, 2022 - 08:20 AM EST / 2022.12.08 1320 UTC
Wind: from the WNW (300 degrees) at 5 MPH (4 KT) (direction variable):0
Visibility: 5 mile(s):0
Sky conditions: mostly clear
Temperature: 33 F (1 C)
Windchill: 28 F (-2 C):1
Dew Point: 30 F (-1 C)
Relative Humidity: 86%
Pressure (altimeter): 29.83 in. Hg (1010 hPa)
ob: EGKB 081320Z 30004KT 250V330 9000 FEW040 01/M01 Q1010
cycle: 13

Station Type Date Time Source
EGKB TAF 2022/11/21 21:09 UTC NOAA

TAF TAF EGKB 211956Z 2121/2223 24013KT 9999 FEW040 PROB30
TEMPO 2121/2123 24015G25KT

Example: see airport list